createdAt,value
2023-02-17T06:29:27.603Z,82.30
2023-02-17T06:32:29.168Z,82.00
2023-02-17T06:35:30.740Z,81.90
2023-02-17T06:38:32.549Z,81.70
2023-02-17T06:41:34.197Z,81.80
2023-02-17T06:44:35.844Z,81.80
2023-02-17T06:47:37.508Z,81.70
2023-02-17T06:50:39.392Z,81.80
2023-02-17T06:53:41.134Z,81.80
2023-02-17T06:56:42.812Z,81.80
2023-02-17T06:59:44.942Z,81.80
2023-02-17T07:02:46.729Z,81.80
2023-02-17T07:05:48.720Z,81.80
2023-02-17T07:08:50.672Z,81.80
2023-02-17T07:11:52.389Z,81.90
2023-02-17T07:14:54.042Z,81.80
2023-02-17T07:17:55.727Z,81.80
2023-02-17T07:20:57.421Z,81.60
2023-02-17T07:23:59.048Z,81.50
2023-02-17T07:27:00.940Z,81.40
2023-02-17T07:30:02.753Z,81.40
2023-02-17T07:33:06.887Z,81.30
2023-02-17T07:36:13.738Z,81.30
2023-02-17T07:39:16.086Z,81.20
2023-02-17T07:42:17.802Z,81.10
2023-02-17T07:45:19.636Z,81.10
2023-02-17T07:48:21.287Z,80.90
2023-02-17T07:51:23.009Z,80.90
2023-02-17T07:54:24.657Z,80.70
2023-02-17T07:57:26.432Z,80.70
2023-02-17T08:00:28.428Z,80.60
2023-02-17T08:03:30.287Z,80.50
2023-02-17T08:06:32.207Z,80.60
2023-02-17T08:09:52.753Z,80.60
2023-02-17T08:13:13.244Z,80.50
2023-02-17T08:16:14.946Z,80.30
2023-02-17T08:19:16.859Z,80.20
2023-02-17T08:22:18.701Z,80.10
2023-02-17T08:25:20.385Z,80.10
2023-02-17T08:28:22.444Z,80.10
2023-02-17T08:31:26.347Z,80.10
2023-02-17T08:34:28.610Z,80.10
2023-02-17T08:37:31.739Z,80.10
2023-02-17T08:40:33.507Z,80.10
2023-02-17T08:43:35.152Z,79.90
2023-02-17T08:46:37.520Z,79.90
2023-02-17T08:49:39.485Z,79.70
2023-02-17T08:52:41.159Z,79.60
2023-02-17T08:55:49.198Z,79.60
2023-02-17T08:58:53.746Z,79.40
2023-02-17T09:01:55.757Z,79.20
2023-02-17T09:04:57.500Z,79.10
2023-02-17T09:07:59.146Z,78.80
2023-02-17T09:11:01.082Z,78.70
2023-02-17T09:14:02.727Z,78.60
2023-02-17T09:17:05.233Z,78.30
2023-02-17T09:20:19.475Z,78.00
2023-02-17T09:23:26.199Z,77.90
2023-02-17T09:26:27.910Z,77.70
2023-02-17T09:29:29.571Z,77.60
2023-02-17T09:32:31.295Z,77.50
2023-02-17T09:35:33.187Z,77.30
2023-02-17T09:38:35.167Z,77.20
2023-02-17T09:41:39.200Z,77.10
2023-02-17T09:44:45.208Z,77.00
2023-02-17T09:47:59.600Z,76.90
2023-02-17T09:51:06.905Z,76.90
2023-02-17T09:54:14.052Z,76.60
2023-02-17T09:57:20.917Z,76.30
2023-02-17T10:00:30.553Z,76.10
2023-02-17T10:03:52.233Z,75.90
2023-02-17T10:07:02.338Z,75.70
2023-02-17T10:10:39.964Z,75.50
2023-02-17T10:13:41.755Z,75.50
2023-02-17T10:16:48.843Z,75.30
2023-02-17T10:19:57.177Z,75.10
2023-02-17T10:23:09.317Z,75.20
2023-02-17T10:26:39.328Z,75.10
2023-02-17T10:29:41.807Z,74.90
2023-02-17T10:33:02.843Z,74.70
2023-02-17T10:36:35.876Z,74.70
2023-02-17T10:39:43.333Z,74.50
2023-02-17T10:42:44.971Z,74.40
2023-02-17T10:45:49.567Z,74.30
2023-02-17T10:48:52.267Z,74.20
2023-02-17T10:51:53.935Z,74.20
2023-02-17T10:55:06.598Z,74.20
2023-02-17T10:58:14.410Z,74.10
2023-02-17T11:01:16.269Z,74.10
2023-02-17T11:04:17.915Z,74.20
2023-02-17T11:07:26.253Z,73.80
2023-02-17T11:10:35.231Z,73.70
2023-02-17T11:13:39.110Z,73.60
2023-02-17T11:16:45.941Z,73.70
2023-02-17T11:20:05.146Z,73.70
2023-02-17T11:23:24.294Z,73.50
2023-02-17T11:26:27.691Z,73.30
2023-02-17T11:29:29.716Z,73.30
2023-02-17T11:32:32.549Z,73.20
2023-02-17T11:35:37.000Z,73.20
2023-02-17T11:38:38.914Z,73.30
2023-02-17T11:41:40.913Z,73.20
2023-02-17T11:44:42.639Z,73.30
2023-02-17T11:48:07.426Z,73.50
2023-02-17T11:51:25.559Z,73.70
2023-02-17T11:54:43.113Z,73.70
2023-02-17T11:57:56.723Z,73.70
2023-02-17T12:01:46.607Z,73.90
2023-02-17T12:05:04.312Z,74.00
2023-02-17T12:08:45.783Z,73.90
2023-02-17T12:12:04.360Z,73.90
2023-02-17T12:15:28.581Z,74.10
2023-02-17T12:18:52.251Z,74.20
2023-02-17T12:22:29.046Z,74.20
2023-02-17T12:25:54.523Z,74.20
2023-02-17T12:29:05.215Z,74.20
2023-02-17T12:32:43.349Z,74.30
2023-02-17T12:36:01.159Z,74.30
2023-02-17T12:39:12.066Z,74.30
2023-02-17T12:42:25.197Z,74.40
2023-02-17T12:45:36.098Z,74.40
2023-02-17T12:48:53.102Z,74.50
2023-02-17T12:51:58.116Z,74.70
2023-02-17T12:55:08.594Z,74.70
2023-02-17T12:58:16.894Z,74.70
2023-02-17T13:01:19.786Z,74.80
2023-02-17T13:04:24.625Z,74.90
2023-02-17T13:07:45.301Z,74.90
2023-02-17T13:10:47.086Z,74.70
2023-02-17T13:13:48.971Z,74.70
2023-02-17T13:16:50.687Z,74.60
2023-02-17T13:20:11.166Z,74.30
2023-02-17T13:23:14.062Z,74.10
2023-02-17T13:26:25.051Z,73.80
2023-02-17T13:29:26.673Z,73.80
2023-02-17T13:32:30.006Z,74.00
2023-02-17T13:35:33.760Z,74.00
2023-02-17T13:38:35.460Z,73.70
2023-02-17T13:41:47.651Z,73.50
2023-02-17T13:44:50.209Z,73.40
2023-02-17T13:47:53.282Z,73.20
2023-02-17T13:51:02.105Z,73.20
2023-02-17T13:54:08.156Z,73.20
2023-02-17T13:57:28.443Z,73.00
2023-02-17T14:00:31.074Z,73.00
2023-02-17T14:03:52.218Z,73.00
2023-02-17T14:06:56.225Z,72.90
2023-02-17T14:09:58.019Z,72.90
2023-02-17T14:12:59.738Z,73.00
2023-02-17T14:16:01.699Z,73.00
2023-02-17T14:19:17.500Z,73.00
2023-02-17T14:22:28.868Z,73.00
2023-02-17T14:25:31.865Z,73.00
2023-02-17T14:28:33.776Z,73.10
2023-02-17T14:31:48.450Z,73.10
2023-02-17T14:34:50.149Z,73.00
2023-02-17T14:37:51.882Z,72.90
2023-02-17T14:40:55.702Z,72.90
2023-02-17T14:43:57.448Z,73.10
2023-02-17T14:46:59.176Z,73.10
2023-02-17T14:50:00.993Z,73.00
2023-02-17T14:53:02.652Z,73.00
2023-02-17T14:56:26.526Z,73.00
2023-02-17T14:59:28.392Z,73.00
2023-02-17T15:02:30.327Z,72.80
2023-02-17T15:05:32.037Z,72.70
2023-02-17T15:08:34.460Z,72.70
2023-02-17T15:11:38.850Z,72.80
2023-02-17T15:14:40.587Z,72.70
2023-02-17T15:17:42.216Z,72.70
2023-02-17T15:20:45.077Z,72.70
2023-02-17T15:23:46.737Z,72.60
2023-02-17T15:26:48.445Z,72.70
2023-02-17T15:29:50.101Z,72.80
2023-02-17T15:32:51.860Z,72.80
2023-02-17T15:35:53.940Z,72.80
2023-02-17T15:38:55.683Z,72.90
2023-02-17T15:41:57.541Z,72.80
2023-02-17T15:44:59.212Z,72.90
2023-02-17T15:48:21.114Z,73.10
2023-02-17T15:51:24.610Z,73.20
2023-02-17T15:54:26.255Z,73.30
2023-02-17T15:57:29.000Z,73.40
2023-02-17T16:00:35.131Z,73.50
2023-02-17T16:03:36.856Z,73.50
2023-02-17T16:06:38.590Z,73.60
2023-02-17T16:09:40.498Z,73.60
2023-02-17T16:12:42.381Z,73.70
2023-02-17T16:15:44.139Z,73.80
2023-02-17T16:18:46.907Z,73.90
2023-02-17T16:21:48.581Z,73.90
2023-02-17T16:24:50.296Z,73.90
2023-02-17T16:27:52.195Z,74.00
2023-02-17T16:30:53.918Z,74.20
2023-02-17T16:34:00.192Z,74.30
2023-02-17T16:37:03.004Z,74.40
2023-02-17T16:40:13.847Z,74.40
2023-02-17T16:43:17.004Z,74.50
2023-02-17T16:46:24.774Z,74.60
2023-02-17T16:49:32.539Z,74.70
2023-02-17T16:52:34.249Z,74.70
2023-02-17T16:55:36.097Z,75.00
2023-02-17T16:58:37.905Z,75.20
2023-02-17T17:01:39.647Z,75.40
2023-02-17T17:04:41.371Z,75.70
2023-02-17T17:07:43.053Z,75.80
2023-02-17T17:10:45.165Z,76.00
2023-02-17T17:13:46.972Z,76.10
2023-02-17T17:16:51.942Z,76.20
2023-02-17T17:19:53.716Z,76.20
2023-02-17T17:22:55.354Z,76.20
2023-02-17T17:25:57.313Z,76.40
2023-02-17T17:28:59.045Z,76.50
2023-02-17T17:32:00.865Z,76.70
2023-02-17T17:35:02.775Z,77.00
2023-02-17T17:38:04.566Z,77.20
2023-02-17T17:41:06.462Z,77.50
2023-02-17T17:44:10.354Z,77.70
2023-02-17T17:47:21.270Z,78.00
2023-02-17T17:50:30.191Z,78.30
2023-02-17T17:53:31.833Z,78.60
2023-02-17T17:56:35.674Z,78.90
2023-02-17T17:59:37.611Z,79.00
2023-02-17T18:02:39.332Z,79.20
2023-02-17T18:05:40.970Z,79.50
2023-02-17T18:08:43.824Z,79.50
2023-02-17T18:11:45.490Z,79.60
2023-02-17T18:14:49.479Z,79.70
2023-02-17T18:17:51.115Z,79.70
2023-02-17T18:20:52.955Z,79.80
2023-02-17T18:23:54.657Z,79.70
2023-02-17T18:26:56.357Z,79.80
2023-02-17T18:29:58.461Z,79.80
2023-02-17T18:33:00.158Z,79.90
2023-02-17T18:36:12.776Z,79.90
2023-02-17T18:39:14.558Z,80.00
2023-02-17T18:42:16.426Z,80.00
2023-02-17T18:45:18.130Z,80.10
2023-02-17T18:48:19.765Z,80.20
2023-02-17T18:51:23.334Z,80.30
2023-02-17T18:54:24.980Z,80.50
2023-02-17T18:57:26.723Z,80.90
2023-02-17T19:00:28.669Z,81.00
2023-02-17T19:03:30.369Z,81.20
2023-02-17T19:06:34.494Z,81.60
2023-02-17T19:09:39.494Z,81.70
2023-02-17T19:12:41.150Z,81.90
2023-02-17T19:15:42.803Z,82.10
2023-02-17T19:18:44.854Z,82.20
2023-02-17T19:21:46.494Z,82.40
2023-02-17T19:24:51.039Z,82.50
2023-02-17T19:27:52.752Z,82.60
2023-02-17T19:30:57.481Z,82.70
2023-02-17T19:33:59.162Z,82.90
2023-02-17T19:37:00.922Z,83.00
2023-02-17T19:40:02.931Z,83.10
2023-02-17T19:43:04.598Z,83.20
2023-02-17T19:46:06.740Z,83.40
2023-02-17T19:49:08.910Z,83.40
2023-02-17T19:52:10.622Z,83.50
2023-02-17T19:55:12.461Z,83.50
2023-02-17T19:58:14.117Z,83.50
2023-02-17T20:01:23.923Z,83.60
2023-02-17T20:04:25.556Z,83.60
2023-02-17T20:07:27.187Z,83.70
2023-02-17T20:10:29.042Z,83.70
2023-02-17T20:13:44.641Z,83.80
2023-02-17T20:16:48.475Z,83.90
2023-02-17T20:19:50.267Z,83.90
2023-02-17T20:22:51.884Z,84.00
2023-02-17T20:25:53.523Z,84.00
2023-02-17T20:28:55.467Z,84.10
2023-02-17T20:31:57.236Z,84.10
2023-02-17T20:34:58.948Z,84.30
2023-02-17T20:38:00.944Z,84.40
2023-02-17T20:41:03.029Z,84.40
2023-02-17T20:44:05.174Z,84.60
2023-02-17T20:47:07.582Z,84.60
2023-02-17T20:50:15.077Z,84.70
2023-02-17T20:53:16.740Z,84.70
2023-02-17T20:56:20.516Z,84.80
2023-02-17T20:59:22.204Z,84.90
2023-02-17T21:02:23.972Z,84.90
2023-02-17T21:05:26.361Z,85.00
2023-02-17T21:08:28.002Z,85.00
2023-02-17T21:11:29.688Z,85.20
2023-02-17T21:14:31.628Z,85.40
2023-02-17T21:17:33.376Z,85.50
2023-02-17T21:20:35.244Z,85.60
2023-02-17T21:23:37.056Z,85.70
2023-02-17T21:26:38.747Z,85.60
2023-02-17T21:29:40.549Z,85.50
2023-02-17T21:32:42.482Z,85.50
2023-02-17T21:35:44.131Z,85.60
2023-02-17T21:38:46.178Z,85.60
2023-02-17T21:41:47.819Z,85.70
2023-02-17T21:44:52.451Z,85.70
2023-02-17T21:47:54.114Z,85.80
2023-02-17T21:51:07.222Z,85.80
2023-02-17T21:54:09.536Z,85.90
2023-02-17T21:57:11.233Z,85.90
2023-02-17T22:00:13.933Z,86.00
2023-02-17T22:03:15.671Z,86.00
2023-02-17T22:06:20.467Z,86.00
2023-02-17T22:09:22.411Z,86.00
2023-02-17T22:12:24.116Z,86.00
2023-02-17T22:15:25.774Z,85.90
2023-02-17T22:18:27.562Z,86.00
2023-02-17T22:21:29.252Z,86.10
2023-02-17T22:24:30.901Z,86.10
2023-02-17T22:27:32.924Z,86.20
2023-02-17T22:30:34.594Z,86.30
2023-02-17T22:33:36.341Z,86.40
2023-02-17T22:36:38.339Z,86.40
2023-02-17T22:39:40.287Z,86.40
2023-02-17T22:42:41.921Z,86.50
2023-02-17T22:45:43.689Z,86.40
2023-02-17T22:48:46.696Z,86.50
2023-02-17T22:51:48.369Z,86.40
2023-02-17T22:54:50.111Z,86.40
2023-02-17T22:57:51.828Z,86.40
2023-02-17T23:01:04.197Z,86.50
2023-02-17T23:04:05.929Z,86.60
2023-02-17T23:07:07.649Z,86.50
2023-02-17T23:10:09.544Z,86.50
2023-02-17T23:13:11.363Z,86.50
2023-02-17T23:16:18.215Z,86.50
2023-02-17T23:19:20.792Z,86.50
2023-02-17T23:22:22.526Z,86.50
2023-02-17T23:25:24.215Z,86.50
2023-02-17T23:28:26.378Z,86.40
2023-02-17T23:31:28.491Z,86.40
2023-02-17T23:34:30.357Z,86.40
2023-02-17T23:37:32.078Z,86.30
2023-02-17T23:40:36.761Z,86.30
2023-02-17T23:43:38.408Z,86.20
2023-02-17T23:46:40.631Z,86.20
2023-02-17T23:49:42.528Z,86.20
2023-02-17T23:52:44.202Z,86.10
